Adamstown, PA (19501)

4:40 PM EDT on August 30, 2015 (GMT -0400)
Quail Hollow | | Change Station
CLOSE
Current Station
Personal Weather Station
Location: Denver, PA
Elevation: 459 ft
Nearby Weather Stations

Elev 459 ft 40.22 °N, 76.08 °W | Updated 12 minutes ago

Partly Cloudy
Partly Cloudy
87.6 °F
Feels Like 92 °F
N
6.3
Wind Variable Wind from WSW

Today
High -- | Low -- °F
--% Chance of Precip.
Yesterday
High -- | Low -- °F
Precip. -- in
6:29 AM 7:39 PM
Full, 98% visible
Pressure 30.04 in
Visibility 10.0 miles
Clouds Clear
Heat Index 92 °F
Dew Point 69 °F
Humidity 54%
Rainfall 0.00 in
Snow Depth Not available.
UV 5 out of 12
Pollen 10.00 out of 12
Air Quality Not available.
Flu Activity Not available.
METAR KRDG 301954Z AUTO 26009KT 10SM CLR 30/17 A3004 RMK AO2 SLP173 T03000172
Pressure 30.04 in
Visibility 10.0 miles
Clouds Clear
Heat Index 92 °F
Dew Point 69 °F
Humidity 54%
Rainfall 0.00 in
Snow Depth Not available.
UV 5 out of 12
Pollen 10.00 out of 12
Air Quality Not available.
Flu Activity Not available.
METAR KRDG 301954Z AUTO 26009KT 10SM CLR 30/17 A3004 RMK AO2 SLP173 T03000172

10-Day Weather Forecast

×

Almanac

Astronomy

Aug. 30, 2015 Rise Set
Actual Time
Civil Twilight
Nautical Twilight
Astronomical Twilight
Moon
Length of Visible Light
Length of Day
Tomorrow will be .
, % of the Moon is Illuminated

Today's Extremes

State Highs State Lows

Community

WunderPhotos

Upload Photos

1,851,057 photos uploaded!

WunderBlogs® & News

Nearby

Air Quality

  Air Quality AQ Index Pollutant
Not available.

Snow Depth

Station Depth Elevation

Earthquake Activity

City Distance Mag. Time & Date
Minimum magnitude displayed is 2.5.

Coastal Water Temperatures

Place Temperature

Stations

Nearby Weather Stations

Station Location Temp. Windchill Dew Point Humidity Wind Precip. Elev Updated Type